Aérodrome :
LOGIN :

S'inscrire | Disclaimer

   EN    FR    IT 

 










Légende :    VFR   VFR Marginal   IFR   IFR Intensif   IFR Très Intensif
Visi : 
Plafond : 
>= 8 km
>= 3000ft
5 à 8 km
1000 à 3000 ft
1500m à 5 km
500 à 1000 ft
800 à 1500m
200 à 500 ft
< 800m
< 200 ft
Symboles :   Orages  Brouillard  Fortes neiges  Fortes précipitations  Vent > 20 kt
SIGMETs :   Divers  Orages  Givrage  Turbulence  Onde Orograph.  Cendres Volcan.






- Altitude de l'aérodrome : 2096 ft
- Code IATA : AUR


LFLW - Aurillac

DERNIER METAR :
  • 152100Z AUTO 09007KT 9999 // ////// 07/06 Q1010

METARs EXPIRÉS :
  • 152030Z AUTO 09007KT 9999 // ////// 07/06 Q1011
  • 152000Z AUTO 09007KT 9999 // ////// 07/06 Q1011
  • 151930Z AUTO 09007KT 9999 // ////// 06/06 Q1011
  • 151900Z AUTO 08006KT 9999 // ////// 06/06 Q1011
  • 151830Z AUTO 10006KT 9999 // ////// 07/06 Q1011
  • 151800Z AUTO 09004KT 9999 // ////// 07/05 Q1011

TAF TAF LFLW
Valide du 15 à 15h jusqu'au 16 à 00h UTC


151400Z 1515/1524 15006KT CAVOK



MET'MAP, la Météo Aéronautique d'un coup d'oeil ! - Copyright ORBIFLY Décembre 2007 - Disclaimer

ORBIFLY MET'MAP TEAM :

Programmation & Développement : Alexandra Zaïnal
Sur une idée originale de : Baudouin d'Aumeries
Assistance à la programmation : Marc-Olivier Méhu
Soutien technique & logistique : Manuel Goepfert

Contact : metmap@orbifly.com




SOURCES & CREDITS :

   NOAA